sensor_id;sensor_type;location;lat;lon;timestamp;temperature;humidity
8539;DHT22;4307;53.868;11.680;2023-07-20T00:01:48;15.20;99.90
8539;DHT22;4307;53.868;11.680;2023-07-20T00:04:14;15.20;99.90
8539;DHT22;4307;53.868;11.680;2023-07-20T00:06:41;15.20;99.90
8539;DHT22;4307;53.868;11.680;2023-07-20T00:09:07;15.10;99.90
8539;DHT22;4307;53.868;11.680;2023-07-20T00:11:36;15.20;99.90
8539;DHT22;4307;53.868;11.680;2023-07-20T00:14:03;15.10;99.90
8539;DHT22;4307;53.868;11.680;2023-07-20T00:16:31;15.20;99.90
8539;DHT22;4307;53.868;11.680;2023-07-20T00:18:57;15.10;99.90
8539;DHT22;4307;53.868;11.680;2023-07-20T00:21:24;15.10;99.90
8539;DHT22;4307;53.868;11.680;2023-07-20T00:23:51;15.20;99.90
8539;DHT22;4307;53.868;11.680;2023-07-20T00:26:18;15.10;99.90
8539;DHT22;4307;53.868;11.680;2023-07-20T00:28:45;15.10;99.90
8539;DHT22;4307;53.868;11.680;2023-07-20T00:31:11;15.10;99.90
8539;DHT22;4307;53.868;11.680;2023-07-20T00:33:39;15.10;99.90
8539;DHT22;4307;53.868;11.680;2023-07-20T00:36:06;15.00;99.90
8539;DHT22;4307;53.868;11.680;2023-07-20T00:38:33;15.10;99.90
8539;DHT22;4307;53.868;11.680;2023-07-20T00:40:59;15.00;99.90
8539;DHT22;4307;53.868;11.680;2023-07-20T00:43:26;15.00;99.90
8539;DHT22;4307;53.868;11.680;2023-07-20T00:45:53;15.00;99.90
8539;DHT22;4307;53.868;11.680;2023-07-20T00:48:19;15.00;99.90
8539;DHT22;4307;53.868;11.680;2023-07-20T00:50:48;14.90;99.90
8539;DHT22;4307;53.868;11.680;2023-07-20T00:53:15;14.90;99.90
8539;DHT22;4307;53.868;11.680;2023-07-20T00:55:42;14.90;99.90
8539;DHT22;4307;53.868;11.680;2023-07-20T00:58:09;14.80;99.90
8539;DHT22;4307;53.868;11.680;2023-07-20T01:00:36;14.80;99.90
8539;DHT22;4307;53.868;11.680;2023-07-20T01:03:03;14.70;99.90
8539;DHT22;4307;53.868;11.680;2023-07-20T01:05:37;14.70;99.90
8539;DHT22;4307;53.868;11.680;2023-07-20T01:08:10;14.70;99.90
8539;DHT22;4307;53.868;11.680;2023-07-20T01:10:40;14.60;99.90
8539;DHT22;4307;53.868;11.680;2023-07-20T01:13:10;14.60;99.90
8539;DHT22;4307;53.868;11.680;2023-07-20T01:15:37;14.60;99.90
8539;DHT22;4307;53.868;11.680;2023-07-20T01:18:04;14.60;99.90
8539;DHT22;4307;53.868;11.680;2023-07-20T01:20:31;14.50;99.90
8539;DHT22;4307;53.868;11.680;2023-07-20T01:23:30;14.50;99.90
8539;DHT22;4307;53.868;11.680;2023-07-20T01:26:12;14.50;99.90
8539;DHT22;4307;53.868;11.680;2023-07-20T01:28:57;14.40;99.90
8539;DHT22;4307;53.868;11.680;2023-07-20T01:31:33;14.40;99.90
8539;DHT22;4307;53.868;11.680;2023-07-20T01:34:02;14.40;99.90
8539;DHT22;4307;53.868;11.680;2023-07-20T01:36:30;14.30;99.90
8539;DHT22;4307;53.868;11.680;2023-07-20T01:39:00;14.30;99.90
8539;DHT22;4307;53.868;11.680;2023-07-20T01:41:27;14.30;99.90
8539;DHT22;4307;53.868;11.680;2023-07-20T01:43:57;14.20;99.90
8539;DHT22;4307;53.868;11.680;2023-07-20T01:46:24;14.20;99.90
8539;DHT22;4307;53.868;11.680;2023-07-20T01:48:54;14.10;99.90
8539;DHT22;4307;53.868;11.680;2023-07-20T01:51:21;14.10;99.90
8539;DHT22;4307;53.868;11.680;2023-07-20T01:53:48;14.10;99.90
8539;DHT22;4307;53.868;11.680;2023-07-20T01:56:14;14.10;99.90
8539;DHT22;4307;53.868;11.680;2023-07-20T01:58:41;14.00;99.90
8539;DHT22;4307;53.868;11.680;2023-07-20T02:01:08;14.00;99.90
8539;DHT22;4307;53.868;11.680;2023-07-20T02:03:34;14.00;99.90
8539;DHT22;4307;53.868;11.680;2023-07-20T02:06:02;14.00;99.90
8539;DHT22;4307;53.868;11.680;2023-07-20T02:08:29;14.00;99.90
8539;DHT22;4307;53.868;11.680;2023-07-20T02:10:56;14.00;99.90
8539;DHT22;4307;53.868;11.680;2023-07-20T02:13:23;14.00;99.90
8539;DHT22;4307;53.868;11.680;2023-07-20T02:15:49;14.00;99.90
8539;DHT22;4307;53.868;11.680;2023-07-20T02:18:16;14.10;99.90
8539;DHT22;4307;53.868;11.680;2023-07-20T02:20:43;14.10;99.90
8539;DHT22;4307;53.868;11.680;2023-07-20T02:23:11;14.10;99.90
8539;DHT22;4307;53.868;11.680;2023-07-20T02:25:38;14.20;99.90
8539;DHT22;4307;53.868;11.680;2023-07-20T02:28:07;14.20;99.90
8539;DHT22;4307;53.868;11.680;2023-07-20T02:30:36;14.20;99.90
8539;DHT22;4307;53.868;11.680;2023-07-20T02:33:03;14.20;99.90
8539;DHT22;4307;53.868;11.680;2023-07-20T02:35:31;14.30;99.90
8539;DHT22;4307;53.868;11.680;2023-07-20T02:37:58;14.30;99.90
8539;DHT22;4307;53.868;11.680;2023-07-20T02:40:26;14.30;99.90
8539;DHT22;4307;53.868;11.680;2023-07-20T02:42:53;14.30;99.90
8539;DHT22;4307;53.868;11.680;2023-07-20T02:45:19;14.40;99.90
8539;DHT22;4307;53.868;11.680;2023-07-20T02:47:46;14.40;99.90
8539;DHT22;4307;53.868;11.680;2023-07-20T02:50:12;14.40;99.90
8539;DHT22;4307;53.868;11.680;2023-07-20T02:52:40;14.40;99.90
8539;DHT22;4307;53.868;11.680;2023-07-20T02:55:07;14.40;99.90
8539;DHT22;4307;53.868;11.680;2023-07-20T02:57:35;14.40;99.90
8539;DHT22;4307;53.868;11.680;2023-07-20T03:00:03;14.40;99.90
8539;DHT22;4307;53.868;11.680;2023-07-20T03:02:31;14.40;99.90
8539;DHT22;4307;53.868;11.680;2023-07-20T03:04:57;14.40;99.90
8539;DHT22;4307;53.868;11.680;2023-07-20T03:07:27;14.50;99.90
8539;DHT22;4307;53.868;11.680;2023-07-20T03:09:54;14.50;99.90
8539;DHT22;4307;53.868;11.680;2023-07-20T03:12:21;14.50;99.90
8539;DHT22;4307;53.868;11.680;2023-07-20T03:14:49;14.50;99.90
8539;DHT22;4307;53.868;11.680;2023-07-20T03:17:16;14.50;99.90
8539;DHT22;4307;53.868;11.680;2023-07-20T03:19:42;14.50;99.90
8539;DHT22;4307;53.868;11.680;2023-07-20T03:22:09;14.50;99.90
8539;DHT22;4307;53.868;11.680;2023-07-20T03:24:36;14.50;99.90
8539;DHT22;4307;53.868;11.680;2023-07-20T03:27:03;14.50;99.90
8539;DHT22;4307;53.868;11.680;2023-07-20T03:29:31;14.50;99.90
8539;DHT22;4307;53.868;11.680;2023-07-20T03:31:59;14.50;99.90
8539;DHT22;4307;53.868;11.680;2023-07-20T03:34:26;14.50;99.90
8539;DHT22;4307;53.868;11.680;2023-07-20T03:36:53;14.50;99.90
8539;DHT22;4307;53.868;11.680;2023-07-20T03:39:19;14.50;99.90
8539;DHT22;4307;53.868;11.680;2023-07-20T03:41:46;14.50;99.90
8539;DHT22;4307;53.868;11.680;2023-07-20T03:44:13;14.60;99.90
8539;DHT22;4307;53.868;11.680;2023-07-20T03:46:40;14.60;99.90
8539;DHT22;4307;53.868;11.680;2023-07-20T03:49:07;14.60;99.90
8539;DHT22;4307;53.868;11.680;2023-07-20T03:51:35;14.60;99.90
8539;DHT22;4307;53.868;11.680;2023-07-20T03:54:02;14.60;99.90
8539;DHT22;4307;53.868;11.680;2023-07-20T03:56:29;14.60;99.90
8539;DHT22;4307;53.868;11.680;2023-07-20T03:58:59;14.60;99.90
8539;DHT22;4307;53.868;11.680;2023-07-20T04:01:26;14.60;99.90
8539;DHT22;4307;53.868;11.680;2023-07-20T04:03:52;14.60;99.90
8539;DHT22;4307;53.868;11.680;2023-07-20T04:06:21;14.60;99.90
8539;DHT22;4307;53.868;11.680;2023-07-20T04:08:47;14.60;99.90
8539;DHT22;4307;53.868;11.680;2023-07-20T04:11:14;14.60;99.90
8539;DHT22;4307;53.868;11.680;2023-07-20T04:13:41;14.70;99.90
8539;DHT22;4307;53.868;11.680;2023-07-20T04:16:07;14.70;99.90
8539;DHT22;4307;53.868;11.680;2023-07-20T04:18:34;14.80;99.90
8539;DHT22;4307;53.868;11.680;2023-07-20T04:21:00;15.00;99.90
8539;DHT22;4307;53.868;11.680;2023-07-20T04:23:28;15.30;99.90
8539;DHT22;4307;53.868;11.680;2023-07-20T04:25:55;15.50;99.90
8539;DHT22;4307;53.868;11.680;2023-07-20T04:28:22;15.60;99.90
8539;DHT22;4307;53.868;11.680;2023-07-20T04:30:49;15.80;99.90
8539;DHT22;4307;53.868;11.680;2023-07-20T04:33:16;16.30;99.90
8539;DHT22;4307;53.868;11.680;2023-07-20T04:35:48;16.80;99.90
8539;DHT22;4307;53.868;11.680;2023-07-20T04:38:15;17.40;99.90
8539;DHT22;4307;53.868;11.680;2023-07-20T04:40:44;17.90;99.90
8539;DHT22;4307;53.868;11.680;2023-07-20T04:43:11;18.20;99.90
8539;DHT22;4307;53.868;11.680;2023-07-20T04:45:38;18.20;99.90
8539;DHT22;4307;53.868;11.680;2023-07-20T04:48:09;18.40;99.90
8539;DHT22;4307;53.868;11.680;2023-07-20T04:50:37;18.80;99.90
8539;DHT22;4307;53.868;11.680;2023-07-20T04:53:03;19.00;99.90
8539;DHT22;4307;53.868;11.680;2023-07-20T04:55:30;18.90;99.90
8539;DHT22;4307;53.868;11.680;2023-07-20T04:58:00;18.90;99.90
8539;DHT22;4307;53.868;11.680;2023-07-20T05:00:27;19.00;99.90
8539;DHT22;4307;53.868;11.680;2023-07-20T05:02:53;19.00;99.90
8539;DHT22;4307;53.868;11.680;2023-07-20T05:05:20;19.10;99.90
8539;DHT22;4307;53.868;11.680;2023-07-20T05:07:47;19.20;99.90
8539;DHT22;4307;53.868;11.680;2023-07-20T05:10:14;19.40;99.90
8539;DHT22;4307;53.868;11.680;2023-07-20T05:12:41;19.80;99.90
8539;DHT22;4307;53.868;11.680;2023-07-20T05:15:09;19.90;99.90
8539;DHT22;4307;53.868;11.680;2023-07-20T05:17:36;19.90;99.90
8539;DHT22;4307;53.868;11.680;2023-07-20T05:20:03;20.10;99.90
8539;DHT22;4307;53.868;11.680;2023-07-20T05:22:30;20.20;99.90
8539;DHT22;4307;53.868;11.680;2023-07-20T05:24:57;20.30;99.90
8539;DHT22;4307;53.868;11.680;2023-07-20T05:27:24;20.50;99.90
8539;DHT22;4307;53.868;11.680;2023-07-20T05:29:51;20.80;99.90
8539;DHT22;4307;53.868;11.680;2023-07-20T05:32:19;21.30;99.90
8539;DHT22;4307;53.868;11.680;2023-07-20T05:34:46;21.80;99.90
8539;DHT22;4307;53.868;11.680;2023-07-20T05:37:13;22.00;99.90
8539;DHT22;4307;53.868;11.680;2023-07-20T05:39:40;21.80;99.90
8539;DHT22;4307;53.868;11.680;2023-07-20T05:42:07;21.50;99.90
8539;DHT22;4307;53.868;11.680;2023-07-20T05:44:33;21.10;99.90
8539;DHT22;4307;53.868;11.680;2023-07-20T05:47:00;21.10;99.90
8539;DHT22;4307;53.868;11.680;2023-07-20T05:49:29;21.30;99.90
8539;DHT22;4307;53.868;11.680;2023-07-20T05:51:56;21.80;99.90
8539;DHT22;4307;53.868;11.680;2023-07-20T05:54:24;22.50;99.90
8539;DHT22;4307;53.868;11.680;2023-07-20T05:56:51;23.10;99.90
8539;DHT22;4307;53.868;11.680;2023-07-20T05:59:18;23.70;99.90
8539;DHT22;4307;53.868;11.680;2023-07-20T06:01:45;24.30;99.90
8539;DHT22;4307;53.868;11.680;2023-07-20T06:04:14;24.80;99.90
8539;DHT22;4307;53.868;11.680;2023-07-20T06:06:42;25.40;99.90
8539;DHT22;4307;53.868;11.680;2023-07-20T06:09:08;25.80;98.70
8539;DHT22;4307;53.868;11.680;2023-07-20T06:11:37;26.30;97.80
8539;DHT22;4307;53.868;11.680;2023-07-20T06:14:04;26.60;96.30
8539;DHT22;4307;53.868;11.680;2023-07-20T06:16:31;26.80;95.10
8539;DHT22;4307;53.868;11.680;2023-07-20T06:18:59;26.90;94.10
8539;DHT22;4307;53.868;11.680;2023-07-20T06:21:26;27.10;93.00
8539;DHT22;4307;53.868;11.680;2023-07-20T06:23:54;27.20;92.30
8539;DHT22;4307;53.868;11.680;2023-07-20T06:26:21;27.30;91.20
8539;DHT22;4307;53.868;11.680;2023-07-20T06:28:47;27.40;90.50
8539;DHT22;4307;53.868;11.680;2023-07-20T06:31:14;27.30;90.00
8539;DHT22;4307;53.868;11.680;2023-07-20T06:33:40;27.30;89.10
8539;DHT22;4307;53.868;11.680;2023-07-20T06:36:07;27.40;88.40
8539;DHT22;4307;53.868;11.680;2023-07-20T06:38:34;27.30;87.60
8539;DHT22;4307;53.868;11.680;2023-07-20T06:41:04;27.20;86.90
8539;DHT22;4307;53.868;11.680;2023-07-20T06:43:34;27.20;86.40
8539;DHT22;4307;53.868;11.680;2023-07-20T06:46:01;27.50;85.50
8539;DHT22;4307;53.868;11.680;2023-07-20T06:48:28;27.50;84.50
8539;DHT22;4307;53.868;11.680;2023-07-20T06:50:55;27.60;84.10
8539;DHT22;4307;53.868;11.680;2023-07-20T06:53:21;27.70;83.70
8539;DHT22;4307;53.868;11.680;2023-07-20T06:55:48;27.50;83.00
8539;DHT22;4307;53.868;11.680;2023-07-20T06:58:17;27.20;82.70
8539;DHT22;4307;53.868;11.680;2023-07-20T07:00:44;26.80;82.80
8539;DHT22;4307;53.868;11.680;2023-07-20T07:03:11;26.30;83.10
8539;DHT22;4307;53.868;11.680;2023-07-20T07:05:38;26.30;83.10
8539;DHT22;4307;53.868;11.680;2023-07-20T07:08:04;26.30;83.00
8539;DHT22;4307;53.868;11.680;2023-07-20T07:10:31;26.70;82.50
8539;DHT22;4307;53.868;11.680;2023-07-20T07:12:58;26.80;81.00
8539;DHT22;4307;53.868;11.680;2023-07-20T07:15:27;26.80;80.00
8539;DHT22;4307;53.868;11.680;2023-07-20T07:17:54;26.70;79.50
8539;DHT22;4307;53.868;11.680;2023-07-20T07:20:22;26.70;79.20
8539;DHT22;4307;53.868;11.680;2023-07-20T07:22:50;26.80;78.90
8539;DHT22;4307;53.868;11.680;2023-07-20T07:25:18;26.80;78.30
8539;DHT22;4307;53.868;11.680;2023-07-20T07:27:45;26.70;78.20
8539;DHT22;4307;53.868;11.680;2023-07-20T07:30:12;26.60;77.80
8539;DHT22;4307;53.868;11.680;2023-07-20T07:32:41;26.60;77.20
8539;DHT22;4307;53.868;11.680;2023-07-20T07:35:08;26.70;76.40
8539;DHT22;4307;53.868;11.680;2023-07-20T07:37:36;26.80;74.90
8539;DHT22;4307;53.868;11.680;2023-07-20T07:40:03;26.80;74.10
8539;DHT22;4307;53.868;11.680;2023-07-20T07:42:31;26.90;73.10
8539;DHT22;4307;53.868;11.680;2023-07-20T07:44:58;27.10;72.60
8539;DHT22;4307;53.868;11.680;2023-07-20T07:47:25;27.10;72.40
8539;DHT22;4307;53.868;11.680;2023-07-20T07:49:54;27.20;72.40
8539;DHT22;4307;53.868;11.680;2023-07-20T07:52:21;27.20;71.80
8539;DHT22;4307;53.868;11.680;2023-07-20T07:54:48;27.30;71.20
8539;DHT22;4307;53.868;11.680;2023-07-20T07:57:16;27.30;71.30
8539;DHT22;4307;53.868;11.680;2023-07-20T07:59:43;27.60;71.20
8539;DHT22;4307;53.868;11.680;2023-07-20T08:02:11;27.80;70.60
8539;DHT22;4307;53.868;11.680;2023-07-20T08:04:39;27.90;70.00
8539;DHT22;4307;53.868;11.680;2023-07-20T08:07:08;27.90;69.50
8539;DHT22;4307;53.868;11.680;2023-07-20T08:09:35;27.80;69.30
8539;DHT22;4307;53.868;11.680;2023-07-20T08:12:02;27.60;69.80
8539;DHT22;4307;53.868;11.680;2023-07-20T08:14:29;27.50;70.20
8539;DHT22;4307;53.868;11.680;2023-07-20T08:16:56;27.20;70.20
8539;DHT22;4307;53.868;11.680;2023-07-20T08:19:24;26.70;70.40
8539;DHT22;4307;53.868;11.680;2023-07-20T08:21:51;26.20;71.30
8539;DHT22;4307;53.868;11.680;2023-07-20T08:24:20;25.90;72.30
8539;DHT22;4307;53.868;11.680;2023-07-20T08:26:47;25.60;72.80
8539;DHT22;4307;53.868;11.680;2023-07-20T08:29:14;25.60;72.90
8539;DHT22;4307;53.868;11.680;2023-07-20T08:31:41;25.70;72.90
8539;DHT22;4307;53.868;11.680;2023-07-20T08:34:09;25.90;72.40
8539;DHT22;4307;53.868;11.680;2023-07-20T08:36:36;25.90;72.10
8539;DHT22;4307;53.868;11.680;2023-07-20T08:39:04;25.80;71.70
8539;DHT22;4307;53.868;11.680;2023-07-20T08:41:33;25.70;71.50
8539;DHT22;4307;53.868;11.680;2023-07-20T08:44:01;25.40;71.50
8539;DHT22;4307;53.868;11.680;2023-07-20T08:46:28;25.00;72.10
8539;DHT22;4307;53.868;11.680;2023-07-20T08:48:56;24.60;72.70
8539;DHT22;4307;53.868;11.680;2023-07-20T08:51:25;24.20;73.20
8539;DHT22;4307;53.868;11.680;2023-07-20T08:53:52;23.80;73.90
8539;DHT22;4307;53.868;11.680;2023-07-20T08:56:20;23.70;74.80
8539;DHT22;4307;53.868;11.680;2023-07-20T08:58:49;23.80;75.30
8539;DHT22;4307;53.868;11.680;2023-07-20T09:01:17;24.00;75.00
8539;DHT22;4307;53.868;11.680;2023-07-20T09:03:45;24.30;74.70
8539;DHT22;4307;53.868;11.680;2023-07-20T09:06:12;24.60;74.50
8539;DHT22;4307;53.868;11.680;2023-07-20T09:08:40;24.90;74.10
8539;DHT22;4307;53.868;11.680;2023-07-20T09:11:07;25.00;73.10
8539;DHT22;4307;53.868;11.680;2023-07-20T09:13:34;25.00;72.60
8539;DHT22;4307;53.868;11.680;2023-07-20T09:16:03;25.00;72.40
8539;DHT22;4307;53.868;11.680;2023-07-20T09:18:31;24.90;72.50
8539;DHT22;4307;53.868;11.680;2023-07-20T09:21:01;25.00;72.60
8539;DHT22;4307;53.868;11.680;2023-07-20T09:23:32;25.10;72.50
8539;DHT22;4307;53.868;11.680;2023-07-20T09:26:00;25.10;72.80
8539;DHT22;4307;53.868;11.680;2023-07-20T09:28:27;25.00;72.80
8539;DHT22;4307;53.868;11.680;2023-07-20T09:30:55;24.80;72.90
8539;DHT22;4307;53.868;11.680;2023-07-20T09:33:25;24.80;73.20
8539;DHT22;4307;53.868;11.680;2023-07-20T09:35:52;24.90;72.50
8539;DHT22;4307;53.868;11.680;2023-07-20T09:38:18;25.10;72.10
8539;DHT22;4307;53.868;11.680;2023-07-20T09:40:46;25.30;71.20
8539;DHT22;4307;53.868;11.680;2023-07-20T09:43:15;25.30;70.60
8539;DHT22;4307;53.868;11.680;2023-07-20T09:45:42;25.30;70.30
8539;DHT22;4307;53.868;11.680;2023-07-20T09:48:10;25.10;70.60
8539;DHT22;4307;53.868;11.680;2023-07-20T09:50:42;24.90;70.50
8539;DHT22;4307;53.868;11.680;2023-07-20T09:53:12;24.70;71.40
8539;DHT22;4307;53.868;11.680;2023-07-20T09:55:40;24.50;70.70
8539;DHT22;4307;53.868;11.680;2023-07-20T09:58:18;24.30;70.80
8539;DHT22;4307;53.868;11.680;2023-07-20T10:00:51;24.20;71.00
8539;DHT22;4307;53.868;11.680;2023-07-20T10:03:19;24.10;71.40
8539;DHT22;4307;53.868;11.680;2023-07-20T10:05:52;24.10;71.50
8539;DHT22;4307;53.868;11.680;2023-07-20T10:08:20;24.10;71.40
8539;DHT22;4307;53.868;11.680;2023-07-20T10:10:50;24.00;71.10
8539;DHT22;4307;53.868;11.680;2023-07-20T10:13:18;23.90;71.20
8539;DHT22;4307;53.868;11.680;2023-07-20T10:15:50;23.80;71.40
8539;DHT22;4307;53.868;11.680;2023-07-20T10:18:24;23.60;71.40
8539;DHT22;4307;53.868;11.680;2023-07-20T10:20:55;23.60;71.60
8539;DHT22;4307;53.868;11.680;2023-07-20T10:23:23;23.50;71.60
8539;DHT22;4307;53.868;11.680;2023-07-20T10:25:50;23.50;71.90
8539;DHT22;4307;53.868;11.680;2023-07-20T10:28:17;23.60;72.50
8539;DHT22;4307;53.868;11.680;2023-07-20T10:30:44;23.80;72.70
8539;DHT22;4307;53.868;11.680;2023-07-20T10:33:11;24.00;72.50
8539;DHT22;4307;53.868;11.680;2023-07-20T10:35:55;24.10;72.40
8539;DHT22;4307;53.868;11.680;2023-07-20T10:38:39;24.20;71.70
8539;DHT22;4307;53.868;11.680;2023-07-20T10:41:16;24.10;71.50
8539;DHT22;4307;53.868;11.680;2023-07-20T10:43:43;23.90;71.30
8539;DHT22;4307;53.868;11.680;2023-07-20T10:46:11;23.70;71.30
8539;DHT22;4307;53.868;11.680;2023-07-20T10:48:59;23.60;71.40
8539;DHT22;4307;53.868;11.680;2023-07-20T10:51:27;23.40;71.80
8539;DHT22;4307;53.868;11.680;2023-07-20T10:53:55;23.30;72.20
8539;DHT22;4307;53.868;11.680;2023-07-20T10:56:26;23.10;72.80
8539;DHT22;4307;53.868;11.680;2023-07-20T10:58:56;22.80;74.80
8539;DHT22;4307;53.868;11.680;2023-07-20T11:01:27;22.40;77.60
8539;DHT22;4307;53.868;11.680;2023-07-20T11:04:00;22.00;79.80
8539;DHT22;4307;53.868;11.680;2023-07-20T11:06:32;21.50;81.40
8539;DHT22;4307;53.868;11.680;2023-07-20T11:09:07;21.20;83.00
8539;DHT22;4307;53.868;11.680;2023-07-20T11:11:37;21.00;84.40
8539;DHT22;4307;53.868;11.680;2023-07-20T11:14:05;20.90;85.40
8539;DHT22;4307;53.868;11.680;2023-07-20T11:16:40;20.80;86.20
8539;DHT22;4307;53.868;11.680;2023-07-20T11:19:14;20.90;88.00
8539;DHT22;4307;53.868;11.680;2023-07-20T11:21:44;21.10;90.10
8539;DHT22;4307;53.868;11.680;2023-07-20T11:24:11;21.40;90.50
8539;DHT22;4307;53.868;11.680;2023-07-20T11:26:46;21.70;90.50
8539;DHT22;4307;53.868;11.680;2023-07-20T11:29:15;21.90;90.00
8539;DHT22;4307;53.868;11.680;2023-07-20T11:31:43;21.90;88.90
8539;DHT22;4307;53.868;11.680;2023-07-20T11:34:11;21.80;88.40
8539;DHT22;4307;53.868;11.680;2023-07-20T11:36:39;21.60;88.30
8539;DHT22;4307;53.868;11.680;2023-07-20T11:39:08;21.30;88.50
8539;DHT22;4307;53.868;11.680;2023-07-20T11:41:35;21.10;89.40
8539;DHT22;4307;53.868;11.680;2023-07-20T11:44:02;20.90;89.90
8539;DHT22;4307;53.868;11.680;2023-07-20T11:46:29;20.80;90.00
8539;DHT22;4307;53.868;11.680;2023-07-20T11:48:57;20.70;90.00
8539;DHT22;4307;53.868;11.680;2023-07-20T11:51:25;20.80;90.40
8539;DHT22;4307;53.868;11.680;2023-07-20T11:53:52;20.90;90.60
8539;DHT22;4307;53.868;11.680;2023-07-20T11:56:20;21.20;90.80
8539;DHT22;4307;53.868;11.680;2023-07-20T11:58:48;21.50;90.80
8539;DHT22;4307;53.868;11.680;2023-07-20T12:01:15;21.80;90.60
8539;DHT22;4307;53.868;11.680;2023-07-20T12:03:43;22.00;90.30
8539;DHT22;4307;53.868;11.680;2023-07-20T12:06:10;22.20;90.00
8539;DHT22;4307;53.868;11.680;2023-07-20T12:08:42;22.40;90.00
8539;DHT22;4307;53.868;11.680;2023-07-20T12:11:09;22.60;88.10
8539;DHT22;4307;53.868;11.680;2023-07-20T12:13:38;23.10;86.90
8539;DHT22;4307;53.868;11.680;2023-07-20T12:16:13;23.30;85.60
8539;DHT22;4307;53.868;11.680;2023-07-20T12:18:40;23.30;84.50
8539;DHT22;4307;53.868;11.680;2023-07-20T12:21:07;23.20;83.90
8539;DHT22;4307;53.868;11.680;2023-07-20T12:23:35;23.00;83.70
8539;DHT22;4307;53.868;11.680;2023-07-20T12:26:02;22.90;83.90
8539;DHT22;4307;53.868;11.680;2023-07-20T12:28:31;22.70;84.00
8539;DHT22;4307;53.868;11.680;2023-07-20T12:30:59;22.50;84.60
8539;DHT22;4307;53.868;11.680;2023-07-20T12:33:26;22.30;85.40
8539;DHT22;4307;53.868;11.680;2023-07-20T12:35:53;22.20;86.10
8539;DHT22;4307;53.868;11.680;2023-07-20T12:38:21;22.60;87.00
8539;DHT22;4307;53.868;11.680;2023-07-20T12:40:48;23.40;86.70
8539;DHT22;4307;53.868;11.680;2023-07-20T12:43:15;24.10;85.70
8539;DHT22;4307;53.868;11.680;2023-07-20T12:45:42;24.50;84.50
8539;DHT22;4307;53.868;11.680;2023-07-20T12:48:10;24.70;82.70
8539;DHT22;4307;53.868;11.680;2023-07-20T12:50:37;24.40;81.60
8539;DHT22;4307;53.868;11.680;2023-07-20T12:53:04;23.90;81.50
8539;DHT22;4307;53.868;11.680;2023-07-20T12:55:31;23.30;82.10
8539;DHT22;4307;53.868;11.680;2023-07-20T12:57:57;22.70;83.60
8539;DHT22;4307;53.868;11.680;2023-07-20T13:00:24;22.20;85.60
8539;DHT22;4307;53.868;11.680;2023-07-20T13:02:51;21.80;87.50
8539;DHT22;4307;53.868;11.680;2023-07-20T13:05:19;21.30;89.20
8539;DHT22;4307;53.868;11.680;2023-07-20T13:07:46;20.90;90.40
8539;DHT22;4307;53.868;11.680;2023-07-20T13:10:12;20.50;91.10
8539;DHT22;4307;53.868;11.680;2023-07-20T13:12:39;20.30;91.70
8539;DHT22;4307;53.868;11.680;2023-07-20T13:15:08;20.10;92.20
8539;DHT22;4307;53.868;11.680;2023-07-20T13:17:35;20.10;92.70
8539;DHT22;4307;53.868;11.680;2023-07-20T13:20:02;20.20;93.30
8539;DHT22;4307;53.868;11.680;2023-07-20T13:22:31;20.80;93.80
8539;DHT22;4307;53.868;11.680;2023-07-20T13:24:58;21.60;94.40
8539;DHT22;4307;53.868;11.680;2023-07-20T13:27:25;22.40;94.00
8539;DHT22;4307;53.868;11.680;2023-07-20T13:29:52;22.80;93.40
8539;DHT22;4307;53.868;11.680;2023-07-20T13:32:19;23.00;92.80
8539;DHT22;4307;53.868;11.680;2023-07-20T13:34:46;23.10;92.20
8539;DHT22;4307;53.868;11.680;2023-07-20T13:37:14;23.00;91.80
8539;DHT22;4307;53.868;11.680;2023-07-20T13:39:44;22.90;91.80
8539;DHT22;4307;53.868;11.680;2023-07-20T13:42:13;22.70;91.70
8539;DHT22;4307;53.868;11.680;2023-07-20T13:44:41;22.70;91.70
8539;DHT22;4307;53.868;11.680;2023-07-20T13:47:07;22.50;91.30
8539;DHT22;4307;53.868;11.680;2023-07-20T13:49:34;22.60;90.70
8539;DHT22;4307;53.868;11.680;2023-07-20T13:52:01;22.60;89.70
8539;DHT22;4307;53.868;11.680;2023-07-20T13:54:28;22.80;88.00
8539;DHT22;4307;53.868;11.680;2023-07-20T13:56:56;22.90;87.00
8539;DHT22;4307;53.868;11.680;2023-07-20T13:59:23;23.00;86.90
8539;DHT22;4307;53.868;11.680;2023-07-20T14:01:50;23.00;87.10
8539;DHT22;4307;53.868;11.680;2023-07-20T14:04:17;23.10;87.80
8539;DHT22;4307;53.868;11.680;2023-07-20T14:06:47;23.10;88.20
8539;DHT22;4307;53.868;11.680;2023-07-20T14:09:14;23.20;88.20
8539;DHT22;4307;53.868;11.680;2023-07-20T14:11:41;23.20;88.00
8539;DHT22;4307;53.868;11.680;2023-07-20T14:14:09;23.20;87.80
8539;DHT22;4307;53.868;11.680;2023-07-20T14:16:35;23.10;87.70
8539;DHT22;4307;53.868;11.680;2023-07-20T14:19:02;23.00;87.50
8539;DHT22;4307;53.868;11.680;2023-07-20T14:21:30;23.00;87.20
8539;DHT22;4307;53.868;11.680;2023-07-20T14:23:58;22.90;87.10
8539;DHT22;4307;53.868;11.680;2023-07-20T14:26:25;23.00;87.40
8539;DHT22;4307;53.868;11.680;2023-07-20T14:28:52;23.10;87.60
8539;DHT22;4307;53.868;11.680;2023-07-20T14:31:20;23.10;87.00
8539;DHT22;4307;53.868;11.680;2023-07-20T14:33:47;23.00;86.10
8539;DHT22;4307;53.868;11.680;2023-07-20T14:36:13;22.90;85.40
8539;DHT22;4307;53.868;11.680;2023-07-20T14:38:40;22.80;84.80
8539;DHT22;4307;53.868;11.680;2023-07-20T14:41:08;22.70;84.40
8539;DHT22;4307;53.868;11.680;2023-07-20T14:43:35;22.70;84.00
8539;DHT22;4307;53.868;11.680;2023-07-20T14:46:01;22.80;84.00
8539;DHT22;4307;53.868;11.680;2023-07-20T14:48:29;22.90;84.00
8539;DHT22;4307;53.868;11.680;2023-07-20T14:50:56;22.90;83.60
8539;DHT22;4307;53.868;11.680;2023-07-20T14:53:22;22.90;83.20
8539;DHT22;4307;53.868;11.680;2023-07-20T14:55:49;22.80;82.90
8539;DHT22;4307;53.868;11.680;2023-07-20T14:58:16;22.70;83.00
8539;DHT22;4307;53.868;11.680;2023-07-20T15:00:43;22.70;83.20
8539;DHT22;4307;53.868;11.680;2023-07-20T15:03:15;22.60;83.20
8539;DHT22;4307;53.868;11.680;2023-07-20T15:05:43;22.60;83.30
8539;DHT22;4307;53.868;11.680;2023-07-20T15:08:09;22.60;83.30
8539;DHT22;4307;53.868;11.680;2023-07-20T15:10:36;22.70;83.20
8539;DHT22;4307;53.868;11.680;2023-07-20T15:13:03;22.60;82.90
8539;DHT22;4307;53.868;11.680;2023-07-20T15:15:30;22.60;83.00
8539;DHT22;4307;53.868;11.680;2023-07-20T15:17:57;22.60;83.00
8539;DHT22;4307;53.868;11.680;2023-07-20T15:20:23;22.70;82.60
8539;DHT22;4307;53.868;11.680;2023-07-20T15:22:53;22.70;82.40
8539;DHT22;4307;53.868;11.680;2023-07-20T15:25:19;22.70;81.90
8539;DHT22;4307;53.868;11.680;2023-07-20T15:27:47;22.70;81.80
8539;DHT22;4307;53.868;11.680;2023-07-20T15:30:14;22.70;81.60
8539;DHT22;4307;53.868;11.680;2023-07-20T15:32:41;22.70;81.10
8539;DHT22;4307;53.868;11.680;2023-07-20T15:35:09;22.70;80.90
8539;DHT22;4307;53.868;11.680;2023-07-20T15:37:36;22.60;80.50
8539;DHT22;4307;53.868;11.680;2023-07-20T15:40:06;22.60;80.70
8539;DHT22;4307;53.868;11.680;2023-07-20T15:42:33;22.60;80.60
8539;DHT22;4307;53.868;11.680;2023-07-20T15:44:59;22.40;80.90
8539;DHT22;4307;53.868;11.680;2023-07-20T15:47:26;22.30;81.70
8539;DHT22;4307;53.868;11.680;2023-07-20T15:49:53;22.10;82.70